Tiempo atmosférico en la estación meteorológica de Córdoba Aeropuerto, Córdoba (90 m.)



Fecha
DESCASC
Temp. máxima en grados centígrados (hora)
DESCASC
Temp. mínima en grados centígrados (hora)
DESCASC
Temp. media en grados centígrados
DESCASC
Racha de viento máxima en m/sg (hora)
DESCASC
Velocidad máxima media en intervalos de 10 minutos(hora)
DESCASC
Precipitaciones diarias en mm
DESCASC
Precipitaciones de 00:00 a 06:00 en mm
DESCASC
Precipitaciones de 06:00 a 12:00 en mm
DESCASC
Precipitaciones de 12:00 a 18:00 en mm
DESCASC
Precipitaciones de 18:00 a 24:00 en mm
DESCASC
18-08-2019 -- (--) -- (--) -- 9.72 (16:40) 6.67 (16:40) 0 0 0 0 0
17-08-2019 -- (--) -- (--) -- -- (--) -- (--) -- -- -- 0 0
16-08-2019 -- (--) -- (--) -- -- (--) -- (--) -- 0 -- -- 0
15-08-2019 -- (--) -- (--) -- -- (--) -- (--) -- -- 0 0 0
14-08-2019 -- (--) -- (--) -- -- (--) -- (--) -- -- -- -- 0
13-08-2019 37.5 (17:30) 16 (00:00) 26.8 -- (--) -- (--) -- 0 0 0 --
12-08-2019 35.7 (19:00) 17.2 (00:00) 26.5 7.78 (06:00) 4.44 (12:50) 0 0 0 0 0
11-08-2019 -- (--) -- (--) -- 9.72 (22:30) 5.83 (01:00) 0 0 0 0 0
10-08-2019 -- (--) -- (--) -- 9.72 (16:40) 5.83 (17:20) 0 0 0 0 0
09-08-2019 -- (--) -- (--) -- 10.28 (15:20) 6.39 (21:10) 0 0 0 0 0
08-08-2019 38.6 (17:20) 20.6 (00:00) 29.6 8.89 (18:30) 5.56 (19:10) 0 0 0 0 0
07-08-2019 35.6 (17:50) 19.1 (00:00) 27.3 7.78 (14:40) 4.72 (18:00) 0 0 0 0 0
06-08-2019 38.4 (18:20) 18.4 (00:00) 28.4 8.89 (17:00) 5.28 (18:20) 0 0 0 0 0
05-08-2019 39.6 (18:10) 18.9 (00:00) 29.2 8.89 (19:20) 5.83 (22:50) 0 0 0 0 0
04-08-2019 38.6 (18:30) 19.3 (00:00) 28.9 8.33 (19:10) 5.28 (17:20) 0 0 0 0 0
03-08-2019 37.6 (16:40) 18.4 (00:00) 28 9.17 (16:10) 6.39 (19:00) 0 0 0 0 0
02-08-2019 39.7 (17:10) 17.8 (00:00) 28.8 9.72 (19:50) 6.11 (19:50) 0 0 0 0 0
01-08-2019 37.9 (18:30) 22.6 (00:00) 30.3 7.78 (18:40) 5.28 (22:50) 0 0 0 0 0
31-07-2019 38.2 (17:10) 18.6 (00:00) 28.4 11.67 (23:00) 8.33 (22:30) 0 0 0 0 0
30-07-2019 38.4 (18:00) 18.4 (00:00) 28.4 11.39 (00:40) 6.39 (00:50) 0 0 0 0 0
29-07-2019 37 (17:30) 18.8 (00:00) 27.9 9.17 (17:00) 5.83 (22:40) 0 0 0 0 0
28-07-2019 34.8 (17:40) 20.6 (00:00) 27.7 11.39 (22:20) 7.78 (22:30) 0 0 0 0 0
27-07-2019 31.1 (16:30) 17.7 (00:00) 24.4 12.5 (17:30) 7.22 (17:20) 0 0 0 0 0
26-07-2019 34.5 (17:50) 21 (00:00) 27.8 12.5 (20:10) 8.89 (20:20) 0 0 0 0 0
25-07-2019 37.9 (16:30) 22.2 (00:00) 30.1 12.5 (19:40) 7.78 (19:50) 0 0 0 0 0
24-07-2019 40.7 (18:30) 23.2 (00:00) 32 10.28 (15:10) 6.11 (18:10) 0 0 0 0 0
23-07-2019 41.1 (17:10) 23.7 (00:00) 32.4 16.11 (18:10) 7.5 (17:40) 0 0 0 0 0
22-07-2019 40.6 (18:10) 23.9 (00:00) 32.2 12.5 (23:30) 7.78 (23:40) 0 0 0 0 0
21-07-2019 41 (18:30) 22.4 (00:00) 31.7 8.33 (19:50) 5.28 (22:00) 0 0 0 0 0

Gráficas

Temp. máximas Temp. mínimas Temp. medias Precipitaciones Rachas de viento máximas Velocidades máximas media en intervalos de 10 minutos

Datos horarios

Fecha y hora oficial Temperatura (ºC) Velocidad del viento (km/h) Dirección del viento Racha (km/h) Dirección de racha Precipitación (mm) Presión (hPa) Tendencia (hPa) Humedad (%)
2019-08-19 23:00:00 28.6 12 Sudoeste 26 Oeste 0 1002.7 1.9 28
2019-08-19 22:00:00 31 17 Sudoeste 28 Oeste 0 1001.8 1 23
2019-08-19 21:00:00 32.9 17 Oeste 26 Oeste 0 1001.1 0 31
2019-08-19 20:00:00 35.3 19 Oeste 30 Oeste 0 1000.8 -0.9 25
2019-08-19 19:00:00 36.3 20 Sudoeste 32 Sudoeste 0 1000.8 -1.6 21
2019-08-19 18:00:00 36.6 21 Sudoeste 33 Oeste 0 1001.1 -1.8 20
2019-08-19 17:00:00 36.6 18 Oeste 32 Oeste 0 1001.7 -1.6 18
2019-08-19 16:00:00 35.8 17 Oeste 30 Oeste 0 1002.4 -1.4 20
2019-08-19 15:00:00 34.8 17 Oeste 30 Oeste 0 1002.9 -1.4 22
2019-08-19 14:00:00 33.7 14 Oeste 33 Oeste 0 1003.3 -1 30
2019-08-19 13:00:00 32.2 9 Noroeste 21 Oeste 0 1003.8 -0.5 34
2019-08-19 12:00:00 29.9 6 Oeste 13 Oeste 0 1004.3 -0.1 40
2019-08-19 11:00:00 27 3 Oeste 11 Oeste 0 1004.3 0.3 45
2019-08-19 10:00:00 25.7 2 Sudeste 8 Sur 0 1004.3 0.7 49
2019-08-19 09:00:00 22.5 2 Sudoeste 5 Sudoeste 0 1004.4 0.9 60
2019-08-19 08:00:00 19.2 0 Calma 4 Oeste 0 1004 0.3 69
2019-08-19 07:00:00 19.4 0 Calma 9 Sur 0 1003.6 -0.1 70
2019-08-19 06:00:00 20.3 6 Sur 9 Sur 0 1003.5 -0.5 66
2019-08-19 05:00:00 20.6 5 Oeste -- -- -- 1003.7 -0.3 63
2019-08-19 04:00:00 21.6 8 Sudoeste 9 Oeste 0 1003.7 0 61
2019-08-19 03:00:00 22.8 6 Oeste 13 Oeste 0 1004 0.5 55
2019-08-19 02:00:00 24.3 10 Sudoeste 15 Sudoeste 0 1004 1.1 50
2019-08-19 01:00:00 25.1 8 Sudoeste 18 Oeste 0 1003.7 2.1 49
2019-08-19 00:00:00 27 13 Oeste 30 Oeste 0 1003.5 3 43
2019-08-18 23:00:00 29.5 22 Sudoeste 35 Sudoeste 0 1002.9 2.8 34
2019-08-18 22:00:00 31.9 19 Sudoeste 32 Sudoeste 0 1001.6 1.4 27
2019-08-18 21:00:00 34 18 Oeste 32 Oeste 0 1000.5 0 25
2019-08-18 20:00:00 36.3 21 Oeste 32 Oeste 0 1000.1 -0.8 22
2019-08-18 19:00:00 37.6 19 Oeste 32 Oeste 0 1000.2 -1.2 19
2019-08-18 18:00:00 37.8 21 Sudoeste 33 Sudoeste 0 1000.5 -1.5 19
2019-08-18 17:00:00 37.8 22 Oeste 35 Sudoeste 0 1000.9 -1.5 18
2019-08-18 16:00:00 37.5 22 Oeste 33 Sudoeste 0 1001.4 -1.6 19
2019-08-18 15:00:00 36.6 19 Oeste 30 Oeste 0 1002 -1.3 21
2019-08-18 14:00:00 35.7 16 Sudoeste 32 Oeste 0 1002.4 -0.8 23
2019-08-18 13:00:00 33.4 14 Oeste 22 Oeste 0 1003 0.3 24
2019-08-18 12:00:00 31.2 11 Oeste 18 Oeste 0 1003.3 0.9 27
2019-08-18 11:00:00 29.2 6 Sudoeste 11 Oeste 0 1003.2 1.2 29
2019-08-18 10:00:00 26.9 3 Sudeste 9 Este 0 1002.7 1.3 37
2019-08-18 09:00:00 22.8 2 Oeste 4 Oeste 0 1002.4 1.2 49
2019-08-18 08:00:00 19.5 0 Calma 5 Sur 0 1002 0.5 58
2019-08-18 07:00:00 20.3 2 Sur 5 Sur 0 1001.4 -0.5 55
2019-08-18 06:00:00 20.7 2 Sudoeste -- -- 0 1001.2 -0.9 54
2019-08-18 05:00:00 21.6 6 Sudoeste 8 Sudoeste 0 1001.5 -0.7 52
2019-08-18 04:00:00 23.6 8 Oeste 9 Noroeste 0 1001.9 0.2 42
2019-08-18 03:00:00 24.9 6 Oeste 13 Oeste 0 1002.1 0.7 42
2019-08-18 02:00:00 26.6 10 Sudoeste 13 Sudoeste 0 1002.2 1.4 34
2019-08-18 01:00:00 28.9 12 Oeste 18 Oeste 0 1001.7 1.8 30
2019-08-18 00:00:00 30.2 10 Sudoeste 24 Sudoeste 0 1001.4 1.9 28
2019-08-17 23:00:00 32 15 Sudoeste 22 Sudoeste 0 1000.8 1.5 23
2019-08-17 22:00:00 31.4 9 Sudoeste 13 Oeste 0 999.9 0.3 28
2019-08-17 21:00:00 36.3 9 Oeste 21 Oeste 0 999.5 -0.7 19
2019-08-17 20:00:00 39.3 15 Oeste 26 Oeste 0 999.3 -1.3 13
2019-08-17 19:00:00 40.4 15 Oeste 28 Oeste 0 999.6 -1.6 13
2019-08-17 18:00:00 41 17 Oeste 42 Sudoeste 0 1000.2 -2 12
2019-08-17 17:00:00 40.9 12 Sudoeste 22 Sudoeste 0 1000.6 -2.5 12
2019-08-17 16:00:00 40.8 12 Oeste 22 Oeste 0 1001.2 -2.7 13
2019-08-17 15:00:00 39.2 6 Oeste 15 Oeste 0 1002.2 -2.5 14
2019-08-17 14:00:00 37.4 3 Noroeste 13 Noroeste 0 1003.1 -1.9 18
2019-08-17 13:00:00 35.5 5 Nordeste 13 Este 0 1003.9 -1.2 21
2019-08-17 12:00:00 32.7 6 Este -- -- -- 1004.7 -0.3 24
2019-08-17 11:00:00 30.1 12 Este 18 Este 0 1005 0.1 31
2019-08-17 10:00:00 27.2 12 Este -- -- -- 1005.1 0.5 38
2019-08-17 09:00:00 24.7 5 Nordeste -- -- -- 1005 0.6 47
2019-08-17 08:00:00 21.2 0 Calma -- -- 0 1004.9 0.5 60
2019-08-17 07:00:00 21.1 4 Noroeste -- -- -- 1004.6 0 55
2019-08-17 06:00:00 22.1 10 Sur -- -- -- 1004.4 0 52
2019-08-17 05:00:00 22.9 -- -- -- -- 0 1004.4 -0.2 50
2019-08-17 04:00:00 24.2 9 Oeste 9 Oeste 0 1004.6 0.1 46
2019-08-17 03:00:00 25 9 Oeste 11 Oeste 0 1004.4 0.2 44
2019-08-17 02:00:00 26.6 5 Sudoeste 13 Oeste 0 1004.6 0.9 37
2019-08-17 01:00:00 28.5 12 Sudoeste 18 Sudoeste 0 1004.5 1.7 32
2019-08-17 00:00:00 28.7 10 Oeste 21 Oeste 0 1004.2 2 35
2019-08-16 23:00:00 31 15 Sudoeste 21 Oeste 0 1003.7 1.9 30
2019-08-16 22:00:00 32.3 13 Oeste 18 Oeste 0 1002.8 0.8 29
2019-08-16 21:00:00 35.4 12 Oeste 21 Oeste 0 1002.2 -0.1 22
2019-08-16 20:00:00 38 17 Oeste 26 Sudoeste 0 1001.8 -1.3 18
2019-08-16 19:00:00 39.3 16 Oeste 26 Sudoeste 0 1002 -1.6 16
2019-08-16 18:00:00 39.9 17 Oeste 30 Oeste 0 1002.3 -2 15
2019-08-16 17:00:00 39.7 15 Oeste 28 Oeste 0 1003.1 -1.9 16
2019-08-16 16:00:00 38.9 16 Oeste 26 Sudoeste 0 1003.6 -2.1 18
2019-08-16 15:00:00 37.6 13 Oeste -- -- -- 1004.3 -2 20
2019-08-16 14:00:00 -- 7 Oeste -- -- -- 1005 -1.2 --
2019-08-16 13:00:00 -- 5 Oeste -- -- -- 1005.7 -0.7 --
2019-08-16 12:00:00 -- 5 Noroeste -- -- -- 1006.3 0.1 --
2019-08-16 11:00:00 -- 3 Sur 9 Sur 0 1006.2 0.4 --
2019-08-16 10:00:00 -- 3 Sudeste 8 Sudeste 0 1006.4 -- --
2019-08-16 09:00:00 -- 2 Nordeste 5 Nordeste 0 1006.2 1.1 --
2019-08-16 08:00:00 -- 0 Calma -- -- -- 1005.8 0.5 --
2019-08-16 07:00:00 -- -- -- -- -- -- -- -- --
2019-08-16 06:00:00 -- 8 Sur 11 Sur 0 1005.1 -0.2 --
2019-08-16 05:00:00 -- 8 Oeste 13 Oeste 0 1005.3 0.1 --
2019-08-16 04:00:00 -- -- -- -- -- -- -- -- --
2019-08-16 03:00:00 -- 10 Oeste 13 Oeste 0 1005.3 0.7 --
2019-08-16 02:00:00 -- 8 Oeste 21 Oeste 0 1005.2 1 --
2019-08-16 01:00:00 -- 15 Oeste 32 Sudoeste 0 1005.1 2.1 --
2019-08-16 00:00:00 -- 23 Sudoeste 35 Sudoeste 0 1004.6 2.1 --
2019-08-15 23:00:00 -- 12 Sudoeste 18 Sudoeste 0 1004.2 1.9 --
2019-08-15 22:00:00 -- 9 Oeste 15 Oeste 0 1003 0.7 --
2019-08-15 21:00:00 -- 9 Oeste 17 Oeste 0 1002.5 0 --
2019-08-15 20:00:00 -- 10 Oeste 21 Sur 0 1002.3 -0.8 --
2019-08-15 19:00:00 -- 13 Sudoeste 22 Sudoeste 0 1002.3 -1.6 --
2019-08-15 18:00:00 -- 11 Oeste 22 Sudoeste 0 1002.5 -2.1 --
2019-08-15 17:00:00 -- 9 Oeste 22 Sur 0 1003.1 -2.2 --
2019-08-15 16:00:00 -- 6 Oeste 21 Sur 0 1003.9 -2.2 --
2019-08-15 15:00:00 -- 7 Sur 17 Sur 0 1004.6 -2.1 --
2019-08-15 14:00:00 -- 9 Oeste 17 Oeste 0 1005.3 -1.6 --
2019-08-15 13:00:00 -- 5 Sudoeste 17 Sudoeste 0 1006.1 -0.8 --
2019-08-15 12:00:00 -- 4 Sur -- -- -- 1006.7 -0.2 --
2019-08-15 11:00:00 -- 7 Este 13 Este 0 1006.9 0.2 --
2019-08-15 10:00:00 31.7 6 Este 11 Este 0 1006.9 0.7 32
2019-08-15 09:00:00 31.7 0 Calma 4 Este 0 1006.9 1.1 32
2019-08-15 08:00:00 31.7 0 Calma 8 Norte 0 1006.7 0.9 32
2019-08-15 07:00:00 31.7 7 Sur 9 Oeste 0 1006.2 0.3 32
2019-08-15 06:00:00 31.7 4 Sudoeste 9 Sudoeste 0 1005.8 -0.1 32
2019-08-15 05:00:00 31.7 7 Sudoeste -- -- 0 1005.8 -0.1 32
2019-08-15 04:00:00 31.7 8 Oeste -- -- -- 1005.9 0.1 32
2019-08-15 03:00:00 31.7 9 Oeste 15 Oeste 0 1005.9 0.6 32
2019-08-15 02:00:00 31.7 8 Oeste 13 Sudoeste 0 1005.9 1 32
2019-08-15 01:00:00 31.7 8 Oeste 13 Sudoeste 0 1005.8 1.8 32
2019-08-15 00:00:00 31.7 7 Sudoeste 15 Sudoeste 0 1005.3 1.8 32
2019-08-14 23:00:00 31.7 0 Calma 11 Oeste 0 1004.9 1.6 32
2019-08-14 22:00:00 31.7 7 Sudoeste 13 Oeste 0 1004 0.5 32
2019-08-14 21:00:00 31.7 10 Oeste 13 Oeste 0 1003.5 -0.4 32
2019-08-14 20:00:00 31.7 8 Sudoeste 18 Sur 0 1003.3 -1.1 32
2019-08-14 19:00:00 31.7 9 Sudoeste 21 Sudoeste 0 1003.5 -- 32
2019-08-14 18:00:00 31.7 8 Sudeste 21 Sudoeste 0 1003.9 -2.2 32
2019-08-14 17:00:00 31.7 10 Sudoeste -- -- -- 1004.4 -2.3 32
2019-08-14 16:00:00 -- -- -- -- -- -- -- -- --
2019-08-14 15:00:00 31.7 6 Sudoeste -- -- -- 1006.1 -2 32
2019-08-14 14:00:00 31.7 5 Sudoeste 17 Oeste 0 1006.7 -1.7 32
2019-08-14 13:00:00 -- -- -- -- -- -- -- -- --
2019-08-14 12:00:00 29.9 7 Oeste 15 Oeste 0 1008.1 -0.1 41
2019-08-14 11:00:00 28.9 3 Este 9 Este 0 1008.4 0.7 29
2019-08-14 10:00:00 25.5 5 Este 9 Nordeste 0 1008.4 -- 36
2019-08-14 09:00:00 21.8 2 Sur 8 Norte 0 1008.2 -- 44
2019-08-14 08:00:00 17.9 -- -- -- -- -- 1007.7 -- 57
2019-08-14 07:00:00 -- -- -- -- -- -- -- -- --
2019-08-14 06:00:00 -- -- -- -- -- -- -- -- --
2019-08-14 05:00:00 -- -- -- -- -- -- -- -- --
2019-08-14 04:00:00 -- -- -- -- -- -- -- -- --
2019-08-14 03:00:00 -- -- -- -- -- -- -- -- --
2019-08-14 02:00:00 -- -- -- -- -- -- -- -- --
2019-08-14 01:00:00 -- -- -- -- -- -- -- -- --
2019-08-14 00:00:00 -- -- -- -- -- -- -- -- --
2019-08-13 23:00:00 27.2 9 Sudoeste 11 Sudoeste 0 1004.8 2 28
2019-08-13 22:00:00 29.1 8 Oeste 13 Oeste 0 1003.9 1 25
2019-08-13 21:00:00 33.6 11 Oeste 15 Oeste 0 1003.2 -0.1 17
2019-08-13 20:00:00 36.8 6 Sur 17 Sudoeste 0 1002.8 -0.8 11
2019-08-13 19:00:00 37.1 13 Sudoeste 21 Sur 0 1002.9 -1.6 12
2019-08-13 18:00:00 37.2 8 Sudoeste 21 Oeste 0 1003.3 -1.9 11
2019-08-13 17:00:00 37 10 Sudoeste 21 Sudoeste 0 1003.6 -2 12
2019-08-13 16:00:00 36.6 10 Sur 22 Sur 0 1004.5 -1.6 13
2019-08-13 15:00:00 35.3 8 Sudoeste 21 Oeste 0 1005.2 -1.2 18
2019-08-13 14:00:00 33.6 6 Oeste 18 Oeste 0 1005.6 -0.8 24
2019-08-13 13:00:00 32.3 9 Oeste 15 Oeste 0 1006.1 -0.3 25
2019-08-13 12:00:00 30.9 6 Este 17 Este 0 1006.4 0.4 26
2019-08-13 11:00:00 27.7 6 Nordeste 11 Nordeste 0 1006.4 0.9 20
2019-08-13 10:00:00 24.6 4 Sudeste 9 Sur 0 1006.4 1.7 27
2019-08-13 09:00:00 18.9 2 Sudoeste 5 Oeste 0 1006 1.5 40
2019-08-13 08:00:00 16.1 4 Sudoeste -- -- 0 1005.5 0.8 48
2019-08-13 07:00:00 16.2 0 Calma 5 Sur 0 1004.7 0.2 47
2019-08-13 06:00:00 18 2 Este 5 Norte 0 1004.5 0 39
2019-08-13 05:00:00 18.5 5 Sur 9 Sur 0 1004.7 0.1 37
2019-08-13 04:00:00 19.9 3 Sur 9 Sudoeste 0 1004.5 -0.2 29
2019-08-13 03:00:00 22.2 5 Sur 11 Sur 0 1004.5 0.4 31
2019-08-13 02:00:00 23 4 Noroeste 9 Sur 0 1004.6 0.7 30
2019-08-13 01:00:00 23.4 6 Sur 9 Sur 0 1004.7 1.6 32
2019-08-13 00:00:00 24.7 3 Sur 9 Nordeste 0 1004.1 1.8 27
2019-08-12 23:00:00 25.6 0 Calma 8 Oeste 0 1003.9 2.2 28
2019-08-12 22:00:00 27.7 6 Oeste 13 Oeste 0 1003.1 1.4 19
2019-08-12 21:00:00 30.8 9 Oeste 15 Oeste 0 1002.3 0.2 14
2019-08-12 20:00:00 34.6 9 Oeste 17 Sudoeste 0 1001.7 -0.9 11
2019-08-12 19:00:00 35.5 5 Sur 15 Oeste 0 1001.7 -1.8 10
2019-08-12 18:00:00 35.1 10 Sudeste 26 Este 0 1002.1 -2.3 11
2019-08-12 17:00:00 35.2 6 Este 24 Norte 0 1002.6 -2.4 11
2019-08-12 16:00:00 34.3 9 Sudeste 26 Este 0 1003.5 -2 12
2019-08-12 15:00:00 33.2 8 Este 28 Este 0 1004.4 -1.5 12
2019-08-12 14:00:00 32.1 10 Este 26 Este 0 1005 -1.1 14
2019-08-12 13:00:00 30.5 13 Sudeste 24 Nordeste 0 1005.5 -0.4 16
2019-08-12 12:00:00 29 8 Este 17 Este 0 1005.9 0.2 20
2019-08-12 11:00:00 26.5 7 Sudeste 15 Sudeste 0 1006.1 0.7 25
2019-08-12 10:00:00 23.1 7 Sur 11 Sur 0 1005.9 0.8 33
2019-08-12 09:00:00 20 6 Sudoeste 9 Sur 0 1005.7 0.6 37
2019-08-12 08:00:00 17.4 4 Oeste 9 Sur 0 1005.4 0.2 42
2019-08-12 07:00:00 19.1 5 Sur 21 Noroeste 0 1005.1 -0.3 34
2019-08-12 06:00:00 22.4 13 Norte 28 Norte 0 1005.1 -0.5 32
2019-08-12 05:00:00 21.4 7 Norte 13 Noroeste 0 1005.2 -0.3 30
2019-08-12 04:00:00 18.7 4 Oeste 11 Oeste 0 1005.4 0.1 37
2019-08-12 03:00:00 21.5 4 Sudoeste 15 Sudeste 0 1005.6 0.4 28
2019-08-12 02:00:00 23.8 8 Sudeste 15 Sudeste 0 1005.5 0.4 24
2019-08-12 01:00:00 25.7 9 Sudoeste 21 Sur 0 1005.3 1 21
2019-08-12 00:00:00 25.8 13 Sudoeste 22 Sudoeste 0 1005.2 1.4 21
2019-08-11 23:00:00 27.5 14 Norte 35 Norte 0 1005.1 2.1 18
2019-08-11 22:00:00 28.7 15 Noroeste 28 Noroeste 0 1004.3 1.2 14
2019-08-11 21:00:00 30.6 13 Noroeste 30 Noroeste 0 1003.8 0.4 12
2019-08-11 20:00:00 33.2 19 Noroeste 30 Oeste 0 1003 -1 12
2019-08-11 19:00:00 33.9 13 Oeste 24 Oeste 0 1003.1 -1.7 13
2019-08-11 18:00:00 34.3 17 Sudoeste 30 Oeste 0 1003.4 -2 15
2019-08-11 17:00:00 32.8 17 Sudoeste 28 Sudoeste 0 1004 -2.2 16
2019-08-11 16:00:00 31.6 14 Oeste 30 Oeste 0 1004.8 -1.9 20
2019-08-11 15:00:00 32.2 12 Oeste 22 Sudoeste 0 1005.4 -1.4 20
2019-08-11 14:00:00 28.3 10 Sur 18 Sudoeste 0 1006.2 -0.4 22
2019-08-11 13:00:00 27 9 Sudoeste 15 Sudoeste 0 1006.7 0.1 30
2019-08-11 12:00:00 25.4 9 Sur 11 Sur 0 1006.8 0.3 35
2019-08-11 11:00:00 25.2 4 Sur 11 Oeste 0 1006.6 0.4 38
2019-08-11 10:00:00 21.6 8 Sudoeste 11 Sudoeste 0 1006.6 1.1 55
2019-08-11 09:00:00 21.4 4 Oeste 9 Oeste 0 1006.5 1 52
2019-08-11 08:00:00 18 6 Oeste 8 Oeste 0 1006.2 1 63
2019-08-11 07:00:00 18.2 3 Sudoeste 5 Este 0 1005.5 0.6 68
2019-08-11 06:00:00 19.4 3 Este 11 Norte 0 1005.5 0.5 62
2019-08-11 05:00:00 20.4 8 Oeste 18 Oeste 0 1005.2 -0.1 60
2019-08-11 04:00:00 20.9 9 Oeste 21 Oeste 0 1004.9 0.2 60
2019-08-11 03:00:00 22.5 17 Oeste 24 Oeste 0 1005 0.4 52
2019-08-11 02:00:00 24.1 12 Oeste 30 Sudoeste 0 1005.3 1.1 45
2019-08-11 01:00:00 26 21 Sudoeste 30 Sudoeste 0 1004.7 1.5 38
2019-08-11 00:00:00 28.2 15 Sudoeste 24 Oeste 0 1004.6 1.8 37
2019-08-10 23:00:00 29.8 14 Oeste 30 Oeste 0 1004.2 1.7 37
2019-08-10 22:00:00 31.1 13 Oeste 22 Oeste 0 1003.2 0.3 33
2019-08-10 21:00:00 33.8 16 Oeste 26 Oeste 0 1002.8 -0.4 29
2019-08-10 20:00:00 35.4 17 Oeste 30 Oeste 0 1002.5 -1.5 28
2019-08-10 19:00:00 36.4 17 Oeste 35 Oeste 0 1002.9 -2.1 24
2019-08-10 18:00:00 36.4 17 Oeste 32 Oeste 0 1003.2 -2.6 26
2019-08-10 17:00:00 36.1 19 Oeste 35 Oeste 0 1004 -2.6 27
2019-08-10 16:00:00 35.6 13 Sudoeste 28 Sudoeste 0 1005 -2.4 28
2019-08-10 15:00:00 34.9 13 Sudoeste 26 Oeste 0 1005.8 -1.9 30
2019-08-10 14:00:00 33.2 7 Oeste 21 Oeste 0 1006.6 -1.1 34
2019-08-10 13:00:00 32 5 Sudoeste 18 Sudoeste 0 1007.4 -0.3 38
2019-08-10 12:00:00 30.7 9 Sudeste 18 Sur 0 1007.7 -0.1 41
2019-08-10 11:00:00 28.9 5 Este 11 Este 0 1007.7 0.1 49
2019-08-10 10:00:00 26.7 2 Norte 8 Nordeste 0 1007.7 0.4 62
2019-08-10 09:00:00 24.2 0 Calma 5 Oeste 0 1007.8 0.8 74
2019-08-10 08:00:00 21.2 5 Noroeste -- -- 0 1007.6 0.6 84
2019-08-10 07:00:00 21.7 6 Sudoeste 13 Oeste 0 1007.3 0.5 84
2019-08-10 06:00:00 22.4 7 Oeste 11 Oeste 0 1007 0.1 82
2019-08-10 05:00:00 23 8 Oeste 11 Oeste 0 1007 0.2 80
2019-08-10 04:00:00 23.5 9 Oeste 13 Oeste 0 1006.8 0.2 78
2019-08-10 03:00:00 24.4 10 Oeste 24 Oeste 0 1006.9 0.6 74
2019-08-10 02:00:00 25.3 14 Oeste 24 Oeste 0 1006.8 1.4 71
2019-08-10 01:00:00 26.5 13 Sudoeste 21 Oeste 0 1006.6 2.2 65
2019-08-10 00:00:00 27.6 11 Oeste 33 Oeste 0 1006.3 2.9 58
2019-08-09 23:00:00 29 18 Oeste 32 Oeste 0 1005.4 -- 53
2019-08-09 22:00:00 30.8 16 Sudoeste 37 Oeste 0 1004.4 1.3 44
2019-08-09 21:00:00 34.1 19 Oeste -- -- -- 1003.4 -0.1 30
2019-08-09 20:00:00 -- -- -- 30 Oeste 0 -- -- --
2019-08-09 19:00:00 36.8 17 Sudoeste 30 Sudoeste 0 1003.1 -1.7 19
2019-08-09 18:00:00 36.7 18 Sudoeste 33 Sudoeste 0 1003.5 -1.8 21
2019-08-09 17:00:00 36.2 19 Sudoeste 33 Sudoeste 0 1004.1 -1.7 25
2019-08-09 16:00:00 35.5 17 Sudoeste 37 Oeste 0 1004.8 -1.6 27
2019-08-09 15:00:00 34.2 16 Sudoeste 28 Sudoeste 0 1005.3 -1.2 31
2019-08-09 14:00:00 32.8 12 Sudoeste 24 Oeste 0 1005.8 -0.8 37
2019-08-09 13:00:00 31.3 9 Oeste 21 Oeste 0 1006.4 -0.2 43
2019-08-09 12:00:00 28.8 6 Sudoeste 18 Oeste 0 1006.5 0.1 49
2019-08-09 11:00:00 25.9 6 Oeste 15 Oeste 0 1006.6 0.5 61
2019-08-09 10:00:00 24.3 5 Sudoeste 13 Sudoeste 0 1006.6 0.8 66
2019-08-09 09:00:00 22.4 5 Oeste 9 Sur 0 1006.4 1 68
2019-08-09 08:00:00 20 3 Sudoeste 8 Sudoeste 0 1006.1 0.7 73
2019-08-09 07:00:00 19.7 6 Oeste 8 Oeste 0 1005.8 0.5 75
2019-08-09 06:00:00 20.3 5 Oeste 11 Sudoeste 0 1005.4 0.2 69
2019-08-09 05:00:00 21 6 Sudoeste 13 Oeste 0 1005.4 0.7 66
2019-08-09 04:00:00 22.1 9 Sudoeste 15 Sudoeste 0 1005.3 1.2 62
2019-08-09 03:00:00 22.9 10 Oeste 21 Oeste 0 1005.2 1.8 56
2019-08-09 02:00:00 24.4 13 Oeste 24 Sudoeste 0 1004.7 2.1 49
2019-08-09 01:00:00 26.4 13 Sudoeste 24 Oeste 0 1004.1 2.8 38
2019-08-09 00:00:00 28.1 14 Sudoeste 26 Oeste 0 1003.4 2.7 34
2019-08-08 23:00:00 29.9 15 Oeste 26 Oeste 0 1002.6 1.9 32
2019-08-08 22:00:00 30.7 10 Oeste 15 Oeste 0 1001.3 0.5 26
2019-08-08 21:00:00 34.8 10 Oeste 22 Oeste 0 1000.7 -0.4 16
2019-08-08 20:00:00 36.7 17 Oeste 32 Oeste 0 1000.7 -0.6 14
2019-08-08 19:00:00 38 19 Oeste 32 Oeste 0 1000.8 -1.1 15
2019-08-08 18:00:00 38.4 18 Oeste 30 Noroeste 0 1001.1 -1.3 15
2019-08-08 17:00:00 38.3 16 Oeste 30 Oeste 0 1001.3 -1.8 14
2019-08-08 16:00:00 37.8 12 Oeste 24 Oeste 0 1001.9 -1.8 17
2019-08-08 15:00:00 36.4 9 Oeste 22 Noroeste 0 1002.4 -1.7 21
2019-08-08 14:00:00 35.5 7 Sudoeste 17 Oeste 0 1003.1 -1.1 23
2019-08-08 13:00:00 33.9 6 Sur 15 Sur 0 1003.7 -0.7 25
2019-08-08 12:00:00 31.8 3 Sur 13 Sudoeste 0 1004.1 -0.1 30
2019-08-08 11:00:00 28 5 Oeste 13 Oeste 0 1004.2 0.3 45
2019-08-08 10:00:00 25.6 9 Oeste 15 Oeste 0 1004.4 0.8 54
2019-08-08 09:00:00 23.8 4 Sudoeste 5 Oeste 0 1004.2 0.9 60
2019-08-08 08:00:00 21.1 2 Este 8 Este 0 1003.9 0.6 68
2019-08-08 07:00:00 21.1 2 Norte 5 Oeste 0 1003.6 0.4 68
2019-08-08 06:00:00 21.9 4 Sudoeste 9 Oeste 0 1003.3 -0.1 63
2019-08-08 05:00:00 23.6 7 Oeste 22 Sudoeste 0 1003.3 0 60
2019-08-08 04:00:00 24.7 15 Sudoeste 22 Oeste 0 1003.2 0 54
2019-08-08 03:00:00 25.4 8 Oeste 13 Sudoeste 0 1003.4 0.6 45
2019-08-08 02:00:00 26.2 10 Sudoeste 11 Oeste 0 1003.3 0.8 40
2019-08-08 01:00:00 27.5 8 Sur 11 Sur 0 1003.2 1.5 36
2019-08-08 00:00:00 29.6 8 Nordeste 15 Nordeste 0 1002.8 1.6 30
2019-08-07 23:00:00 30.6 6 Norte 17 Noroeste 0 1002.5 1.9 28
2019-08-07 22:00:00 31.4 4 Norte 22 Oeste 0 1001.7 0.7 29
2019-08-07 21:00:00 32.1 11 Oeste 17 Oeste 0 1001.2 -0.3 32
2019-08-07 20:00:00 33.2 12 Oeste 17 Sudoeste 0 1000.6 -0.9 29
2019-08-07 19:00:00 34.6 12 Oeste 24 Oeste 0 1001 -0.9 26
2019-08-07 18:00:00 35.5 17 Sudoeste 26 Oeste 0 1001.5 -0.7 24
2019-08-07 17:00:00 34.9 15 Sudoeste 24 Oeste 0 1001.5 -1.1 25
2019-08-07 16:00:00 34.4 14 Oeste 26 Oeste 0 1001.9 -1.4 25
2019-08-07 15:00:00 34.4 15 Sudoeste 28 Oeste 0 1002.2 -1.3 24
2019-08-07 14:00:00 33.9 13 Sudoeste 24 Sudoeste 0 1002.6 -0.8 26
2019-08-07 13:00:00 30.7 6 Sudoeste 13 Oeste 0 1003.3 -0.1 34
2019-08-07 12:00:00 29.4 5 Sudoeste 11 Oeste 0 1003.5 0.5 35
2019-08-07 11:00:00 26.2 4 Sur 9 Sudoeste 0 1003.4 0.8 44
2019-08-07 10:00:00 25.8 4 Sur -- -- -- 1003.4 1.4 42
2019-08-07 09:00:00 21.6 0 Calma 8 Sur 0 1003 1.4 54
2019-08-07 08:00:00 19.5 5 Sur 5 Sudoeste 0 1002.6 0.7 61
2019-08-07 07:00:00 19.9 0 Calma 9 Noroeste 0 1002 0.3 56
2019-08-07 06:00:00 20.5 6 Sudoeste 11 Sur 0 1001.6 -0.1 51
2019-08-07 05:00:00 21.3 6 Sudoeste 11 Oeste 0 1001.9 0.4 53
2019-08-07 04:00:00 22 8 Oeste 15 Oeste 0 1001.7 0.4 50
2019-08-07 03:00:00 23.1 10 Oeste 13 Oeste 0 1001.7 0.3 44
2019-08-07 02:00:00 24.1 8 Oeste 21 Sudoeste 0 1001.5 0.9 34
2019-08-07 01:00:00 26.7 14 Sudoeste 24 Sudoeste 0 1001.3 1.7 28
2019-08-07 00:00:00 27.2 10 Sudoeste 18 Oeste 0 1001.4 2.4 31
2019-08-06 23:00:00 28.7 15 Sudoeste 21 Sudoeste 0 1000.6 2 27
2019-08-06 22:00:00 29.4 8 Oeste 15 Oeste 0 999.6 0.9 21
2019-08-06 21:00:00 33.7 12 Oeste 24 Oeste 0 999 -0.4 13
2019-08-06 20:00:00 36.8 18 Oeste 28 Sudoeste 0 998.6 -1.4 11
2019-08-06 19:00:00 38 17 Oeste 28 Oeste 0 998.7 -2.1 10
2019-08-06 18:00:00 38.2 18 Oeste 30 Oeste 0 999.4 -2.1 10
2019-08-06 17:00:00 38.3 18 Oeste 32 Oeste 0 1000 -1.9 13
2019-08-06 16:00:00 37.8 14 Oeste 30 Oeste 0 1000.8 -1.9 14
2019-08-06 15:00:00 37 13 Oeste 24 Oeste 0 1001.5 -2.3 14
2019-08-06 14:00:00 35 8 Oeste 17 Sur 0 1001.9 -2.2 18
2019-08-06 13:00:00 32.9 5 Sudeste 15 Oeste 0 1002.7 -1.2 21
2019-08-06 12:00:00 29.8 5 Oeste 13 Oeste 0 1003.8 0 28
2019-08-06 11:00:00 27.8 4 Sudoeste 13 Sur 0 1004.1 0.2 32
2019-08-06 10:00:00 25.2 3 Sur 9 Sudeste 0 1003.9 0.5 38
2019-08-06 09:00:00 22.7 3 Sur 8 Norte 0 1003.8 0.5 42
2019-08-06 08:00:00 18.8 4 Sudoeste 5 Sur 0 1003.9 0.4 58
2019-08-06 07:00:00 18.4 3 Noroeste 8 Sur 0 1003.4 0 50
2019-08-06 06:00:00 19.4 5 Sur 8 Sur 0 1003.3 0 54
2019-08-06 05:00:00 20.2 5 Sudoeste 11 Oeste 0 1003.5 0.1 55
2019-08-06 04:00:00 21.1 8 Oeste 13 Sudoeste 0 1003.4 0.3 52
2019-08-06 03:00:00 22.7 9 Sudoeste 13 Sudoeste 0 1003.3 0.9 44
2019-08-06 02:00:00 24.1 11 Oeste 15 Oeste 0 1003.4 1.6 42
2019-08-06 01:00:00 25.6 10 Oeste 21 Oeste 0 1003.1 2.5 38
2019-08-06 00:00:00 28.1 14 Oeste 26 Oeste 0 1002.4 2.8 30
2019-08-05 23:00:00 30.4 19 Oeste 32 Oeste 0 1001.8 2.4 25
2019-08-05 22:00:00 32.8 18 Sudoeste 30 Sudoeste 0 1000.6 1 22
2019-08-05 21:00:00 35.5 14 Oeste 26 Oeste 0 999.6 -0.1 11
2019-08-05 20:00:00 38 15 Oeste 32 Oeste 0 999.4 -0.8 10
2019-08-05 19:00:00 38.9 19 Oeste 28 Oeste 0 999.6 -1.1 11
2019-08-05 18:00:00 39.4 15 Oeste 28 Oeste 0 999.7 -1.6 11
2019-08-05 17:00:00 38.7 18 Oeste 30 Oeste 0 1000.2 -1.8 16
2019-08-05 16:00:00 38.4 12 Oeste 26 Oeste 0 1000.7 -2.1 18
2019-08-05 15:00:00 37.4 12 Oeste 22 Oeste 0 1001.3 -2.3 18
2019-08-05 14:00:00 36.1 4 Sudoeste 15 Sur 0 1002 -1.7 21
2019-08-05 13:00:00 34 6 Oeste 17 Oeste 0 1002.8 -1.2 24
2019-08-05 12:00:00 32.3 4 Sur 11 Sur 0 1003.6 -0.4 29
2019-08-05 11:00:00 29.5 3 Este 11 Sur 0 1003.7 -0.2 35
2019-08-05 10:00:00 26.6 4 Sur 8 Sudeste 0 1004 0.4 44
2019-08-05 09:00:00 22.6 2 Sudoeste 5 Sudoeste 0 1004 0.6 52
2019-08-05 08:00:00 19.4 4 Sudoeste -- -- 0 1003.9 0.5 64
2019-08-05 07:00:00 19.2 -- -- -- -- 0 1003.6 0.1 66
2019-08-05 06:00:00 20.2 0 Calma 5 Nordeste 0 1003.4 -0.2 62
2019-08-05 05:00:00 21.6 3 Nordeste 13 Sur 0 1003.4 -0.4 58
2019-08-05 04:00:00 22.5 12 Sur 15 Sur 0 1003.5 -0.4 56
2019-08-05 03:00:00 23.9 9 Sudoeste 13 Sudoeste 0 1003.6 0.6 51
2019-08-05 02:00:00 25.3 12 Oeste 15 Oeste 0 1003.8 1.4 47
2019-08-05 01:00:00 26.9 8 Oeste 21 Oeste 0 1003.9 2.4 41
2019-08-05 00:00:00 28.2 14 Oeste 22 Oeste 0 1003 2.2 37
2019-08-04 23:00:00 30.2 10 Oeste 24 Oeste 0 1002.4 1.8 32
2019-08-04 22:00:00 30.4 10 Sudoeste 22 Oeste 0 1001.5 0.9 19
2019-08-04 21:00:00 34.9 14 Oeste 24 Oeste 0 1000.8 0 14
2019-08-04 20:00:00 37.6 15 Oeste 30 Sudoeste 0 1000.6 -0.5 11
2019-08-04 19:00:00 38.4 17 Oeste 26 Oeste 0 1000.6 -1.2 12
2019-08-04 18:00:00 38.4 15 Oeste 28 Oeste 0 1000.8 -1.7 13
2019-08-04 17:00:00 37.9 14 Oeste 26 Oeste 0 1001.1 -2.1 20
2019-08-04 16:00:00 36.9 14 Oeste 22 Oeste 0 1001.8 -2.2 21
2019-08-04 15:00:00 35.3 10 Oeste 21 Oeste 0 1002.5 -2.1 24
2019-08-04 14:00:00 33.2 10 Oeste 21 Oeste 0 1003.2 -1.7 31
2019-08-04 13:00:00 31.1 7 Oeste 18 Oeste 0 1004 -0.8 37
2019-08-04 12:00:00 28.5 8 Oeste 17 Oeste 0 1004.6 -0.3 43
2019-08-04 11:00:00 26.4 8 Sudoeste 15 Oeste 0 1004.9 0.4 49
2019-08-04 10:00:00 24.5 6 Oeste 11 Oeste 0 1004.8 0.6 52
2019-08-04 09:00:00 22.1 3 Sudoeste 8 Sudoeste 0 1004.9 1 55
2019-08-04 08:00:00 19.6 5 Sur -- -- 0 1004.5 0.7 60
2019-08-04 07:00:00 19.7 8 Sur 9 Sur 0 1004.2 0.3 65
2019-08-04 06:00:00 20.4 8 Oeste 13 Oeste 0 1003.9 0.5 62
2019-08-04 05:00:00 21.1 8 Oeste 11 Oeste 0 1003.8 0.4 59
2019-08-04 04:00:00 22.3 7 Oeste 15 Sudoeste 0 1003.9 0.9 55
2019-08-04 03:00:00 23.2 10 Oeste 15 Oeste 0 1003.4 0.8 50
2019-08-04 02:00:00 24.3 11 Oeste 15 Oeste 0 1003.4 1.4 44
2019-08-04 01:00:00 25.3 7 Oeste 18 Sudoeste 0 1003 1.9 38
2019-08-04 00:00:00 27.1 12 Sudoeste 21 Oeste 0 1002.6 2.1 32
2019-08-03 23:00:00 28.2 11 Oeste 15 Sudoeste 0 1002 1.8 26
2019-08-03 22:00:00 30 11 Oeste 24 Oeste 0 1001.1 0.7 23
2019-08-03 21:00:00 33.8 15 Sudoeste 30 Oeste 0 1000.5 -0.3 18
2019-08-03 20:00:00 35.6 21 Oeste 33 Oeste 0 1000.2 -1 19
2019-08-03 19:00:00 36.7 23 Oeste 33 Oeste 0 1000.4 -1.5 18
2019-08-03 18:00:00 37.1 22 Oeste 33 Noroeste 0 1000.8 -1.5 20
2019-08-03 17:00:00 37.1 18 Oeste 33 Oeste 0 1001.2 -1.7 20
2019-08-03 16:00:00 36.7 16 Oeste 28 Oeste 0 1001.9 -1.5 21
2019-08-03 15:00:00 35.5 15 Oeste 26 Oeste 0 1002.3 -1.4 22
2019-08-03 14:00:00 34.4 12 Oeste 21 Oeste 0 1002.9 -1.1 20
2019-08-03 13:00:00 32.2 9 Oeste 17 Oeste 0 1003.4 -0.6 23
2019-08-03 12:00:00 29.9 6 Oeste 15 Oeste 0 1003.7 -0.3 27
2019-08-03 11:00:00 28 4 Nordeste 11 Este 0 1004 0.2 29
2019-08-03 10:00:00 26 4 Sudeste 9 Sudeste 0 1004 0.7 33
2019-08-03 09:00:00 22.6 0 Calma 5 Noroeste 0 1004 1.2 40
2019-08-03 08:00:00 19.2 4 Sur 5 Sudoeste 0 1003.8 1.1 53
2019-08-03 07:00:00 18.5 3 Oeste -- -- 0 1003.3 0.4 54
2019-08-03 06:00:00 19.6 4 Sur 9 Sur 0 1002.8 -0.1 49
2019-08-03 05:00:00 19.9 7 Sur 9 Sur 0 1002.7 0.1 50
2019-08-03 04:00:00 20.5 8 Oeste 11 Oeste 0 1002.9 0.4 52
2019-08-03 03:00:00 22.3 7 Oeste 13 Oeste 0 1002.9 0.6 39
2019-08-03 02:00:00 24.1 8 Oeste 13 Oeste 0 1002.6 0.8 32
2019-08-03 01:00:00 25.5 10 Sudoeste 15 Sudoeste 0 1002.5 1.6 27
2019-08-03 00:00:00 27.5 13 Sudoeste 18 Sudoeste 0 1002.3 1.8 27
2019-08-02 23:00:00 28.4 11 Oeste 18 Oeste 0 1001.8 1.5 27
2019-08-02 22:00:00 30.5 12 Oeste 18 Oeste 0 1000.9 0.5 21
2019-08-02 21:00:00 35 13 Oeste 28 Oeste 0 1000.5 0 14
2019-08-02 20:00:00 37.1 20 Oeste 35 Oeste 0 1000.3 -0.6 13
2019-08-02 19:00:00 38.5 18 Oeste 32 Oeste 0 1000.4 -1 12
2019-08-02 18:00:00 39.1 16 Oeste 32 Oeste 0 1000.5 -1.4 11
2019-08-02 17:00:00 39.2 16 Sudoeste 33 Sudoeste 0 1000.9 -1.5 11
2019-08-02 16:00:00 38.6 13 Oeste 24 Oeste 0 1001.4 -1.7 12
2019-08-02 15:00:00 37.7 9 Sudoeste 22 Sudoeste 0 1001.9 -1.6 14
2019-08-02 14:00:00 36.3 11 Sudoeste 18 Oeste 0 1002.4 -1.4 15
2019-08-02 13:00:00 34.2 6 Sudoeste 13 Sudoeste 0 1003.1 -0.8 18
2019-08-02 12:00:00 31.7 3 Sudeste 11 Este 0 1003.5 -0.3 22
2019-08-02 11:00:00 28.9 4 Sudeste 9 Este 0 1003.8 0.2 31
2019-08-02 10:00:00 25.3 3 Sudoeste 8 Sur 0 1003.9 0.6 40
2019-08-02 09:00:00 21.6 4 Sudoeste 9 Sur 0 1003.8 0.7 53
2019-08-02 08:00:00 18.4 4 Sudoeste 8 Oeste 0 1003.6 0.6 64
2019-08-02 07:00:00 18.6 3 Oeste -- -- 0 1003.3 0.5 65
2019-08-02 06:00:00 19.5 2 Este 5 Sur 0 1003.1 0.3 61
2019-08-02 05:00:00 20.4 4 Sudoeste 5 Sudoeste 0 1003 0.4 59
2019-08-02 04:00:00 22.2 4 Sudoeste 11 Oeste 0 1002.8 0.8 49
2019-08-02 03:00:00 23.9 9 Oeste 22 Sudoeste 0 1002.8 0.8 43
2019-08-02 02:00:00 25.9 13 Sudoeste 24 Sudoeste 0 1002.6 1.1 38
2019-08-02 01:00:00 27.6 16 Sudoeste 26 Sudoeste 0 1002 1.8 46
2019-08-02 00:00:00 29 13 Oeste 22 Oeste 0 1002 2.7 44
2019-08-01 23:00:00 30.6 14 Oeste 28 Oeste 0 1001.5 2.6 38
2019-08-01 22:00:00 31.6 11 Oeste 21 Oeste 0 1000.2 1.4 27
2019-08-01 21:00:00 34.8 13 Oeste 21 Oeste 0 999.3 0.1 21
2019-08-01 20:00:00 36.8 15 Oeste 24 Sudoeste 0 998.9 -0.8 19
2019-08-01 19:00:00 37.6 15 Sudoeste 28 Oeste 0 998.8 -1.8 18
2019-08-01 18:00:00 37.6 13 Oeste 24 Oeste 0 999.2 -1.9 21
2019-08-01 17:00:00 37 14 Oeste 26 Sudoeste 0 999.7 -2 23
2019-08-01 16:00:00 36.1 14 Sudoeste 24 Sudoeste 0 1000.6 -1.8 23
2019-08-01 15:00:00 34.5 13 Oeste 24 Oeste 0 1001.1 -1.5 27
2019-08-01 14:00:00 33 12 Sudoeste 24 Sudoeste 0 1001.7 -1.2 31
2019-08-01 13:00:00 31.4 14 Oeste 24 Sudoeste 0 1002.4 -0.3 40
2019-08-01 12:00:00 29.5 11 Oeste 22 Oeste 0 1002.6 0.1 49
2019-08-01 11:00:00 28.1 10 Oeste 21 Oeste 0 1002.9 0.8 56
2019-08-01 10:00:00 26.9 6 Sudoeste 13 Sudoeste 0 1002.7 0.9 60
2019-08-01 09:00:00 24.9 5 Oeste 9 Oeste 0 1002.5 0.7 67
2019-08-01 08:00:00 22.9 6 Oeste 11 Oeste 0 1002.1 0.5 73
2019-08-01 07:00:00 23 8 Oeste 13 Sudoeste 0 1001.8 0.3 72
2019-08-01 06:00:00 23.8 7 Sudoeste 17 Oeste 0 1001.8 0.5 69
2019-08-01 05:00:00 24.4 9 Oeste 13 Sudoeste 0 1001.6 0.5 67
2019-08-01 04:00:00 25.6 10 Sudoeste 22 Sur 0 1001.5 0.4 61
2019-08-01 03:00:00 26.1 14 Sudoeste 24 Sudoeste 0 1001.3 0.5 57
2019-08-01 02:00:00 26.5 11 Sudoeste 22 Sudoeste 0 1001.1 1.1 55
2019-08-01 01:00:00 26.9 5 Sudoeste 18 Oeste 0 1001.1 2.3 54
2019-08-01 00:00:00 28 6 Sudoeste 39 Sur 0 1000.8 2.7 50
2019-07-31 23:00:00 29 29 Sur 42 Sur 0 1000 2.4 48
2019-07-31 22:00:00 31.4 24 Sur 35 Sur 0 998.8 1.3 39
2019-07-31 21:00:00 34.8 19 Sur 28 Sur 0 998.1 0.1 26
2019-07-31 20:00:00 36.6 15 Oeste 33 Sur 0 997.6 -0.8 20
2019-07-31 19:00:00 37.8 19 Sudoeste 32 Sur 0 997.5 -1.8 19
2019-07-31 18:00:00 37.7 16 Sudoeste 30 Sudoeste 0 998 -1.8 20
2019-07-31 17:00:00 38 13 Oeste 28 Oeste 0 998.4 -2.2 20
2019-07-31 16:00:00 37.5 13 Sudoeste 33 Sudoeste 0 999.3 -2.4 19
2019-07-31 15:00:00 36.5 7 Noroeste 24 Oeste 0 999.8 -2.3 21
2019-07-31 14:00:00 34.7 7 Oeste 22 Oeste 0 1000.6 -1.6 25
2019-07-31 13:00:00 33.4 8 Oeste 18 Oeste 0 1001.7 -0.3 27
2019-07-31 12:00:00 31.5 4 Oeste 13 Oeste 0 1002.1 0.1 28
2019-07-31 11:00:00 29.8 4 Sur 9 Sur 0 1002.2 0.9 30
2019-07-31 10:00:00 26.7 3 Sudeste 8 Este 0 1002 1.1 27
2019-07-31 09:00:00 23.7 2 Sudoeste 8 Noroeste 0 1002 1.3 30
2019-07-31 08:00:00 19.1 2 Sudoeste 9 Norte 0 1001.3 0.4 40
2019-07-31 07:00:00 18.8 4 Oeste 9 Sudoeste 0 1000.9 0 40
2019-07-31 06:00:00 19.7 7 Sur 9 Sur 0 1000.7 0.1 35
2019-07-31 05:00:00 20.6 3 Sudoeste 11 Noroeste 0 1000.9 0.1 30
2019-07-31 04:00:00 21.4 3 Sur 11 Sur 0 1000.9 0.1 28
2019-07-31 03:00:00 21.3 2 Oeste 9 Sur 0 1000.6 0.2 27
2019-07-31 02:00:00 25 5 Sur 15 Noroeste 0 1000.8 0.9 20
2019-07-31 01:00:00 27 6 Sudoeste 17 Este 0 1000.8 1.4 16
2019-07-31 00:00:00 29.3 9 Este 28 Norte 0 1000.4 1.7 12
2019-07-30 23:00:00 30.2 6 Nordeste 18 Oeste 0 999.9 1.3 12
2019-07-30 22:00:00 29.8 10 Noroeste 17 Noroeste 0 999.4 0.6 19
2019-07-30 21:00:00 35 10 Oeste 17 Oeste 0 998.7 -0.6 15
2019-07-30 20:00:00 37.1 12 Oeste 21 Oeste 0 998.6 -1.2 12
2019-07-30 19:00:00 37.7 11 Oeste -- -- -- 998.8 -1.7 12
2019-07-30 18:00:00 38.3 12 Sudoeste 21 Sudoeste 0 999.3 -1.9 11
2019-07-30 17:00:00 37.6 10 Oeste 21 Sudoeste 0 999.8 -2.2 12
2019-07-30 16:00:00 37.1 8 Noroeste 21 Oeste 0 1000.5 -2.3 13
2019-07-30 15:00:00 36.1 12 Oeste 30 Oeste 0 1001.2 -1.9 15
2019-07-30 14:00:00 34.3 7 Oeste 15 Oeste 0 1002 -1.4 17
2019-07-30 13:00:00 33.2 5 Nordeste 18 Este 0 1002.8 -0.8 18
2019-07-30 12:00:00 31 5 Sudeste 13 Sudeste 0 1003.1 -0.6 21
2019-07-30 11:00:00 28.6 4 Sur 11 Noroeste 0 1003.4 0.2 25
2019-07-30 10:00:00 25.8 5 Sur 9 Sudoeste 0 1003.6 0.7 31
2019-07-30 09:00:00 23.4 5 Sur 11 Sur 0 1003.7 1.1 35
2019-07-30 08:00:00 19.3 6 Sudoeste 11 Sudoeste 0 1003.2 0.9 49
2019-07-30 07:00:00 19.2 5 Sur 9 Sur 0 1002.9 0.8 47
2019-07-30 06:00:00 20 3 Sur 8 Sur 0 1002.6 0.6 44
2019-07-30 05:00:00 21.5 3 Sudeste 9 Oeste 0 1002.3 0.5 40
2019-07-30 04:00:00 23.7 6 Sudeste 15 Sur 0 1002.1 0.4 33
2019-07-30 03:00:00 25.7 8 Sudeste 15 Sudeste 0 1002 0.6 28
2019-07-30 02:00:00 28.6 5 Sur 37 Noroeste 0 1001.8 0.8 22
2019-07-30 01:00:00 29.7 23 Noroeste 41 Noroeste 0 1001.7 2 20
2019-07-30 00:00:00 29.4 12 Sudoeste 22 Sudoeste 0 1001.4 2.3 22
2019-07-29 23:00:00 29.9 12 Oeste -- -- -- 1001 2.3 30
2019-07-29 22:00:00 30.8 11 Oeste 21 Oeste 0 999.7 0.9 26
2019-07-29 21:00:00 33.9 14 Oeste 24 Oeste 0 999.1 0 19
2019-07-29 20:00:00 35.9 15 Oeste 28 Sudoeste 0 998.7 -0.8 17
2019-07-29 19:00:00 36.6 17 Sudoeste 26 Sudoeste 0 998.8 -1.3 16
2019-07-29 18:00:00 36.6 14 Oeste 30 Sudoeste 0 999.1 -1.6 16
2019-07-29 17:00:00 36.3 17 Sudoeste 33 Oeste 0 999.5 -1.8 17
2019-07-29 16:00:00 35.6 16 Oeste 30 Oeste 0 1000.1 -2 20
2019-07-29 15:00:00 34.4 16 Sudoeste 28 Oeste 0 1000.7 -1.8 20
2019-07-29 14:00:00 32.3 12 Oeste 21 Oeste 0 1001.3 -1.4 25
2019-07-29 13:00:00 30 6 Sudoeste 17 Oeste 0 1002.1 -0.8 32
2019-07-29 12:00:00 27.3 8 Sudoeste 15 Oeste 0 1002.5 0 46
2019-07-29 11:00:00 24.4 11 Oeste 21 Oeste 0 1002.7 0.7 59
2019-07-29 10:00:00 22.9 12 Oeste 18 Oeste 0 1002.9 1.4 66
2019-07-29 09:00:00 21.4 7 Oeste 11 Oeste 0 1002.5 1.4 69
2019-07-29 08:00:00 19.3 5 Oeste -- -- 0 1002 1.1 78
2019-07-29 07:00:00 19.1 6 Sudoeste 9 Sudoeste 0 1001.5 0.6 76
2019-07-29 06:00:00 19.8 6 Oeste 11 Oeste 0 1001.1 0.2 74
2019-07-29 05:00:00 20.4 9 Sudoeste 13 Sudoeste 0 1000.9 0.2 70
2019-07-29 04:00:00 21.3 9 Sudoeste 13 Oeste 0 1000.9 0.5 66
2019-07-29 03:00:00 22.2 9 Oeste 24 Oeste 0 1000.9 1 63
2019-07-29 02:00:00 23.3 14 Sudoeste 28 Oeste 0 1000.7 1.1 60
2019-07-29 01:00:00 24.5 19 Oeste 30 Oeste 0 1000.4 2.2 57
2019-07-29 00:00:00 26.1 20 Oeste 30 Oeste 0 999.9 2.3 52
2019-07-28 23:00:00 27.6 19 Oeste 41 Oeste 0 999.6 2.5 48
2019-07-28 22:00:00 29.9 13 Oeste 21 Oeste 0 998.2 1.2 35
2019-07-28 21:00:00 32.2 13 Oeste 22 Sudoeste 0 997.6 0.4 30
2019-07-28 20:00:00 34 12 Sudoeste 22 Oeste 0 997.1 -0.6 24
2019-07-28 19:00:00 34.6 13 Sudoeste 24 Sudoeste 0 997 -1.4 22
2019-07-28 18:00:00 34.5 12 Sur 22 Sur 0 997.2 -1.7 24
2019-07-28 17:00:00 34.2 11 Sur 22 Sudoeste 0 997.7 -1.8 24
2019-07-28 16:00:00 33.3 9 Sudoeste 22 Sudoeste 0 998.4 -1.9 29
2019-07-28 15:00:00 32.4 12 Sur 21 Sur 0 998.9 -1.9 32
2019-07-28 14:00:00 30.4 6 Sudoeste 18 Este 0 999.5 -1.7 38
2019-07-28 13:00:00 29.2 10 Este 18 Nordeste 0 1000.3 -0.9 46
2019-07-28 12:00:00 27.6 7 Este 21 Este 0 1000.8 -0.6 51
2019-07-28 11:00:00 25.3 7 Sur 13 Sur 0 1001.2 0 61
2019-07-28 10:00:00 23.7 5 Oeste 15 Sudoeste 0 1001.2 0.3 67
2019-07-28 09:00:00 22.4 9 Sudoeste 13 Oeste 0 1001.4 0.8 73
2019-07-28 08:00:00 20.8 6 Oeste 13 Oeste 0 1001.2 0.6 79
2019-07-28 07:00:00 20.6 8 Oeste 15 Oeste 0 1000.9 0 80
2019-07-28 06:00:00 21.2 11 Oeste 18 Oeste 0 1000.6 -0.4 78
2019-07-28 05:00:00 21.5 12 Oeste 18 Oeste 0 1000.6 -0.7 76
2019-07-28 04:00:00 21.6 13 Oeste 24 Sudoeste 0 1000.9 -0.5 76
2019-07-28 03:00:00 21.8 19 Sudoeste 28 Sudoeste 0 1001 -0.5 75
2019-07-28 02:00:00 22.5 14 Oeste 26 Sudoeste 0 1001.3 0.4 75
2019-07-28 01:00:00 22.9 14 Oeste 32 Sudoeste 0 1001.4 1.2 74
2019-07-28 00:00:00 23.6 20 Sudoeste 30 Sudoeste 0 1001.5 2 70
2019-07-27 23:00:00 24.3 14 Oeste 32 Oeste 0 1000.9 1.6 67
2019-07-26 12:00:00 27.5 18 Sudoeste 28 Oeste 0 1003.6 -0.1 55
2019-07-26 11:00:00 25 16 Sudoeste 30 Oeste 0 1003.9 0.3 67
2019-07-26 10:00:00 23.6 18 Oeste 30 Oeste 0 1004.1 0.9 73
2019-07-26 09:00:00 22.7 15 Oeste 24 Oeste 0 1003.7 0.6 74
2019-07-26 08:00:00 21.3 10 Oeste 15 Oeste 0 1003.6 0.5 79
2019-07-26 07:00:00 21.2 7 Oeste 17 Oeste 0 1003.2 0 78
2019-07-26 06:00:00 21.7 8 Oeste 13 Oeste 0 1003.1 -0.2 75
2019-07-26 05:00:00 22.3 10 Oeste 18 Sudoeste 0 1003.1 -0.2 71
2019-07-26 04:00:00 23 12 Oeste 21 Oeste 0 1003.2 0.1 67
2019-07-26 03:00:00 23.9 10 Oeste 26 Sudoeste 0 1003.3 0.6 62
2019-07-26 02:00:00 24.4 10 Sudoeste 21 Sudoeste 0 1003.3 1.1 62
2019-07-26 01:00:00 25.7 14 Sudoeste 32 Oeste 0 1003.1 1.7 56
2019-07-26 00:00:00 27.3 17 Oeste 32 Oeste 0 1002.7 2.1 48
2019-07-25 23:00:00 29.8 20 Sudoeste 30 Oeste 0 1002.2 1.8 31
2019-07-25 22:00:00 31.7 18 Sudoeste 28 Sudoeste 0 1001.4 1.3 26
2019-07-25 21:00:00 33.8 19 Sudoeste 37 Oeste 0 1000.6 0.2 22
2019-07-25 20:00:00 35 27 Oeste 45 Sudoeste 0 1000.4 -0.2 27
2019-07-25 19:00:00 36.4 23 Oeste 37 Oeste 0 1000.1 -0.9 23
2019-07-25 18:00:00 37.3 24 Oeste 37 Sudoeste 0 1000.4 -1.3 22
2019-07-25 17:00:00 37.9 22 Oeste 33 Oeste 0 1000.6 -1.7 21
2019-07-25 16:00:00 37.6 17 Oeste 37 Oeste 0 1001 -1.9 23
2019-07-25 15:00:00 36.7 16 Oeste 28 Oeste 0 1001.7 -1.4 23
2019-07-25 14:00:00 35.8 13 Sudoeste 22 Oeste 0 1002.3 -1.2 25
2019-07-25 13:00:00 34.1 10 Oeste 18 Oeste 0 1002.9 -1 29
2019-07-25 12:00:00 31.8 6 Oeste 13 Oeste 0 1003.1 -0.6 37
2019-07-25 11:00:00 29.1 6 Sudoeste 15 Sudoeste 0 1003.5 0.3 50
2019-07-25 10:00:00 27.3 8 Oeste 13 Oeste 0 1003.9 1.2 58
2019-07-25 09:00:00 25.4 5 Oeste 9 Oeste 0 1003.7 1.1 65
2019-07-25 08:00:00 22.5 6 Sudoeste 9 Noroeste 0 1003.2 0.6 74
2019-07-25 07:00:00 22.5 5 Noroeste 9 Oeste 0 1002.7 0.1 72
2019-07-25 06:00:00 23.9 3 Sudoeste 9 Sudoeste 0 1002.6 -0.2 67
2019-07-25 05:00:00 24.7 9 Sudoeste 17 Sudoeste 0 1002.6 -0.1 65
2019-07-25 04:00:00 26 8 Sudoeste 21 Sudoeste 0 1002.6 -0.3 60
2019-07-25 03:00:00 27.1 13 Sudoeste 22 Oeste 0 1002.8 0.3 55
2019-07-25 02:00:00 28.4 14 Oeste 22 Oeste 0 1002.7 1.6 49
2019-07-25 01:00:00 29.8 17 Oeste 26 Oeste 0 1002.9 2.9 45
2019-07-25 00:00:00 31.4 17 Sudoeste 26 Oeste 0 1002.5 3.1 41
2019-07-24 23:00:00 32.6 13 Sudoeste 21 Sudoeste 0 1001.1 1.9 31
2019-07-24 22:00:00 33.8 15 Sudoeste 24 Sudoeste 0 1000 0.6 31
2019-07-24 21:00:00 36.5 13 Oeste 26 Oeste 0 999.4 -0.4 24
2019-07-24 20:00:00 38.1 16 Oeste 32 Sudoeste 0 999.2 -1.3 22
2019-07-24 19:00:00 39.5 18 Oeste 37 Sur 0 999.4 -1.7 19
2019-07-24 18:00:00 40.5 19 Sudoeste 37 Sudoeste 0 999.8 -2.1 14
2019-07-24 17:00:00 39.9 13 Sudoeste 30 Sur 0 1000.5 -2 17
2019-07-24 16:00:00 38.7 10 Oeste 37 Oeste 0 1001.1 -1.9 22
2019-07-24 15:00:00 37.4 11 Oeste 22 Oeste 0 1001.9 -1.6 26
2019-07-24 14:00:00 35.8 11 Oeste 21 Oeste 0 1002.5 -1.2 30
2019-07-24 13:00:00 34 9 Oeste 18 Oeste 0 1003 -0.7 40
2019-07-24 12:00:00 31.8 7 Oeste 15 Oeste 0 1003.5 -0.1 46
2019-07-24 11:00:00 30.3 6 Sur 11 Sur 0 1003.7 0.3 52
2019-07-24 10:00:00 28 3 Sudeste 11 Oeste 0 1003.7 0.5 58
2019-07-24 09:00:00 26.5 2 Sur 4 Sur 0 1003.6 0.4 62
2019-07-24 08:00:00 23.6 -- -- -- -- 0 1003.4 0.2 73
2019-07-24 07:00:00 23.3 4 Oeste 9 Sudoeste 0 1003.2 -0.1 74
2019-07-24 06:00:00 24.5 8 Sudoeste 11 Oeste 0 1003.2 -0.5 68
2019-07-24 05:00:00 25.4 6 Oeste 13 Oeste 0 1003.2 -0.7 66
2019-07-24 04:00:00 26.2 11 Oeste 13 Oeste 0 1003.3 -0.3 62
2019-07-24 03:00:00 27.1 8 Sudoeste 17 Sudoeste 0 1003.7 0.3 58
2019-07-24 02:00:00 28.1 10 Oeste 17 Sudoeste 0 1003.9 1.2 56
2019-07-24 01:00:00 29.5 10 Oeste 26 Oeste 0 1003.6 2.1 51
2019-07-24 00:00:00 31.2 16 Sudoeste 24 Sudoeste 0 1003.4 2.6 46
2019-07-23 23:00:00 32.9 13 Oeste 22 Oeste 0 1002.7 2.3 41
2019-07-23 22:00:00 34.2 11 Sudoeste 24 Sudoeste 0 1001.5 1.2 31
2019-07-23 21:00:00 36 15 Sudoeste 30 Sudoeste 0 1000.8 0.3 29
2019-07-23 20:00:00 37.9 19 Oeste 32 Sudoeste 0 1000.4 -0.7 24
2019-07-23 19:00:00 39.8 16 Oeste 58 Sudoeste 0 1000.3 -1.7 21
2019-07-23 18:00:00 40.9 25 Sudoeste 42 Sudoeste 0 1000.5 -2.1 14
2019-07-23 17:00:00 40.6 14 Sudoeste 33 Sur 0 1001.1 -2.1 19
2019-07-23 16:00:00 39.5 20 Sur 39 Oeste 0 1002 -1.7 20
2019-07-23 15:00:00 38.1 13 Oeste 30 Oeste 0 1002.6 -1.4 23
2019-07-23 14:00:00 36 6 Oeste 18 Oeste 0 1003.2 -1.2 29
2019-07-23 13:00:00 34.6 4 Sur 15 Sudoeste 0 1003.7 -1.1 32
2019-07-23 12:00:00 32.9 8 Sudoeste 15 Oeste 0 1004 -1 36
2019-07-23 11:00:00 31.5 4 Este 11 Sur 0 1004.4 -0.6 42
2019-07-23 10:00:00 29.2 5 Sudoeste 13 Sur 0 1004.8 0.5 51
2019-07-23 09:00:00 26.7 6 Sudoeste 9 Sudoeste 0 1005 1.1 60
2019-07-23 08:00:00 24.3 0 Calma 9 Noroeste 0 1005 0.6 66
2019-07-23 07:00:00 24.3 5 Sur 13 Sur 0 1004.3 0.4 64
2019-07-23 06:00:00 25.2 3 Sur 9 Norte 0 1003.9 -0.2 64
2019-07-23 05:00:00 26 5 Nordeste 17 Sur 0 1004.4 -0.4 60
2019-07-23 04:00:00 26.6 5 Sur 17 Oeste 0 1003.9 -1.1 59
2019-07-23 03:00:00 27.1 10 Sudoeste 15 Sudoeste 0 1004.1 -0.2 56
2019-07-23 02:00:00 28.6 11 Oeste 28 Oeste 0 1004.8 1.5 51
2019-07-23 01:00:00 30.3 19 Sudoeste 32 Sudoeste 0 1005 2.7 46
2019-07-23 00:00:00 32.2 24 Sudoeste 45 Sudoeste 0 1004.3 2.7 32
2019-07-22 23:00:00 33.4 13 Oeste 28 Oeste 0 1003.3 1.8 28
2019-07-22 22:00:00 34.5 10 Oeste 26 Sudoeste 0 1002.3 0.5 28
2019-07-22 21:00:00 37.1 12 Oeste 21 Oeste 0 1001.6 -0.8 24
2019-07-22 20:00:00 39 15 Oeste 30 Oeste 0 1001.5 -1.7 25
2019-07-22 19:00:00 39.9 17 Oeste 30 Oeste 0 1001.8 -2.2 23
2019-07-22 18:00:00 40.4 9 Sudoeste 22 Oeste 0 1002.4 -2.5 22
2019-07-22 17:00:00 39.9 14 Oeste 24 Oeste 0 1003.2 -2.1 24
2019-07-22 16:00:00 39.1 11 Oeste 21 Noroeste 0 1004 -2 26
2019-07-22 15:00:00 38 8 Oeste 17 Sudoeste 0 1004.9 -1.7 28
2019-07-22 14:00:00 36.7 7 Oeste 13 Oeste 0 1005.3 -1.4 30
2019-07-22 13:00:00 35 5 Sur 13 Sudeste 0 1006 -1 33
2019-07-22 12:00:00 33.2 9 Sudeste 13 Sudeste 0 1006.6 -0.4 38
2019-07-22 11:00:00 31.1 6 Nordeste 15 Nordeste 0 1006.7 0 43
2019-07-22 10:00:00 29.1 6 Norte 11 Norte 0 1007 0.5 50
2019-07-22 09:00:00 27.2 5 Este 8 Este 0 1007 0.6 56
2019-07-22 08:00:00 24.4 6 Norte 8 Nordeste 0 1006.7 0.3 66
2019-07-22 07:00:00 23.9 3 Norte 9 Sudoeste 0 1006.5 -0.2 66
2019-07-22 06:00:00 24.8 9 Sur 15 Sur 0 1006.4 -0.6 65
2019-07-22 05:00:00 25.4 10 Sudoeste 17 Oeste 0 1006.4 -0.4 64
2019-07-22 04:00:00 26.2 10 Oeste 28 Sudoeste 0 1006.7 0.2 61
2019-07-22 03:00:00 27.4 15 Sudoeste 26 Oeste 0 1007 1.4 57
2019-07-22 02:00:00 28.9 14 Sudoeste 26 Sudoeste 0 1006.8 2.5 49
2019-07-22 01:00:00 30.1 17 Sudoeste 30 Sudoeste 0 1006.5 3.4 46
2019-07-22 00:00:00 31.5 14 Sudoeste 30 Sudoeste 0 1005.6 3.1 41
2019-07-21 23:00:00 32.6 15 Oeste 28 Oeste 0 1004.3 2.2 38
2019-07-21 22:00:00 34.2 19 Oeste 28 Oeste 0 1003.1 1.2 31
2019-07-21 21:00:00 35.9 17 Oeste 30 Oeste 0 1002.5 0.1 28
2019-07-21 20:00:00 38.2 18 Oeste 30 Oeste 0 1002.1 -0.9 25
2019-07-21 19:00:00 40.6 11 Oeste 18 Sudoeste 0 1001.9 -1.9 19
2019-07-21 18:00:00 40.6 10 Oeste 24 Sudoeste 0 1002.4 -2.2 18
2019-07-21 17:00:00 40.1 12 Oeste 24 Oeste 0 1003 -2.3 20
2019-07-21 16:00:00 38.9 8 Oeste 21 Oeste 0 1003.8 -1.9 21
2019-07-21 15:00:00 37.6 10 Oeste 24 Oeste 0 1004.6 -1.2 24
2019-07-21 14:00:00 35.9 9 Oeste 17 Noroeste 0 1005.3 -0.4 27
2019-07-21 13:00:00 34.2 6 Oeste 17 Oeste 0 1005.7 -0.3 30
2019-07-21 12:00:00 32.6 6 Oeste 11 Oeste 0 1005.8 0.2 33
2019-07-21 11:00:00 30.1 5 Oeste 13 Oeste 0 1005.7 0.4 38
2019-07-21 10:00:00 28.5 4 Noroeste 11 Sudeste 0 1006 0.7 42
2019-07-21 09:00:00 25.9 9 Sur 13 Sur 0 1005.6 0.4 50
2019-07-21 08:00:00 22.7 8 Sur 11 Sudoeste 0 1005.3 0.2 61
2019-07-21 07:00:00 22.8 5 Sur 9 Sudoeste 0 1005.3 0.3 59
2019-07-21 06:00:00 23.5 7 Sur 9 Sudoeste 0 1005.2 0.5 57
2019-07-21 05:00:00 23.8 5 Oeste 11 Oeste 0 1005.1 0.5 57
2019-07-21 04:00:00 25.1 8 Sur 13 Oeste 0 1005 1.1 50
2019-07-21 03:00:00 26.6 9 Oeste 15 Oeste 0 1004.7 1.9 44
2019-07-21 02:00:00 27.7 10 Oeste 28 Sur 0 1004.6 2.6 42
2019-07-21 01:00:00 29.7 15 Oeste 26 Oeste 0 1003.9 2.9 37
2019-07-21 00:00:00 31.1 10 Sudoeste 24 Sudoeste 0 1002.8 2.7 32